< < Back
Terminal Aerodrome Forecast


Current Version              Previous Versions:   1  2  3  4  5  6  7  8  9  

Terminal Aerodrome Forecast

366
FTUS44 KBMX 031600 AAA
TAFMGM
TAF AMD
KMGM 031644Z 0317/0412 16005KT P6SM FEW004 OVC030
     FM032100 19007KT P6SM OVC050
     FM040400 17004KT 2SM BR OVC003=

Latest METAR

472
SAUS80 KWBC 032000 RRB
MTRMGM
METAR KMGM 031953Z 10SM SCT027 25/17 A3008 RMK AO2 SLP184 T02500172
$


USA.gov is the U.S. government's official web portal to all federal, state and local government web resources and services.